Time;durP1;ratioP1;P1;durP2;ratioP2;P2;SDS_P1;SDS_P2;PMS_P1;PMS_P2;Temp;Humidity;BMP_temperature;BMP_pressure;BME280_temperature;BME280_humidity;BME280_pressure;Samples;Min_cycle;Max_cycle;Signal;HPM_P1;HPM_P2
2022/06/24 00:01:27;;;;;;;;;;;24.30;65.50;;;;;;5041714;28;19936;-74
2022/06/24 00:03:53;;;;;;;;;;;24.30;65.80;;;;;;5036898;28;19928;-74
2022/06/24 00:06:20;;;;;;;;;;;24.20;65.90;;;;;;5039595;28;19962;-75
2022/06/24 00:08:51;;;;;;;;;;;24.10;66.10;;;;;;5038509;28;20149;-74
2022/06/24 00:11:21;;;;;;;;;;;24.10;66.30;;;;;;5038902;28;20066;-76
2022/06/24 00:13:49;;;;;;;;;;;24.10;66.50;;;;;;5038452;28;19929;-75
2022/06/24 00:16:16;;;;;;;;;;;24.00;66.70;;;;;;5040072;28;19935;-74
2022/06/24 00:18:42;;;;;;;;;;;24.00;67.00;;;;;;5036917;28;20014;-74
2022/06/24 00:21:11;;;;;;;;;;;24.00;67.30;;;;;;5040568;28;19940;-75
2022/06/24 00:23:38;;;;;;;;;;;23.90;67.50;;;;;;5037694;28;19928;-76
2022/06/24 00:26:05;;;;;;;;;;;23.90;67.70;;;;;;5039619;28;19928;-76
2022/06/24 00:28:32;;;;;;;;;;;23.80;67.90;;;;;;5039672;28;19940;-75
2022/06/24 00:31:02;;;;;;;;;;;23.80;68.10;;;;;;5037592;28;19929;-76
2022/06/24 00:33:33;;;;;;;;;;;23.80;68.30;;;;;;5039412;28;19954;-76
2022/06/24 00:36:00;;;;;;;;;;;23.70;68.40;;;;;;5039936;28;20357;-74
2022/06/24 00:38:27;;;;;;;;;;;23.70;68.70;;;;;;5039605;28;19929;-74
2022/06/24 00:40:54;;;;;;;;;;;23.70;68.90;;;;;;5040351;28;20019;-77
2022/06/24 00:43:24;;;;;;;;;;;23.60;69.00;;;;;;5039339;28;19952;-77
2022/06/24 00:45:52;;;;;;;;;;;23.60;69.20;;;;;;5040257;28;19936;-77
2022/06/24 00:48:21;;;;;;;;;;;23.60;69.40;;;;;;5038321;28;19929;-74
2022/06/24 00:50:48;;;;;;;;;;;23.50;69.60;;;;;;5041659;28;19939;-75
2022/06/24 00:53:15;;;;;;;;;;;23.50;69.80;;;;;;5035014;28;20300;-74
2022/06/24 00:55:42;;;;;;;;;;;23.50;70.00;;;;;;5038436;28;19928;-74
2022/06/24 00:58:12;;;;;;;;;;;23.40;70.00;;;;;;5042531;28;19944;-74
2022/06/24 01:00:41;;;;;;;;;;;23.40;70.30;;;;;;5041133;28;19940;-74
2022/06/24 01:03:08;;;;;;;;;;;23.40;70.50;;;;;;5036631;28;19933;-75
2022/06/24 01:05:35;;;;;;;;;;;23.30;70.50;;;;;;5039633;28;19940;-75
2022/06/24 01:08:06;;;;;;;;;;;23.30;70.70;;;;;;5038390;28;20527;-75
2022/06/24 01:10:33;;;;;;;;;;;23.30;70.90;;;;;;5038032;28;19946;-74
2022/06/24 01:12:59;;;;;;;;;;;23.30;71.10;;;;;;5040012;28;19936;-74
2022/06/24 01:15:26;;;;;;;;;;;23.20;71.10;;;;;;5037550;28;20182;-74
2022/06/24 01:17:53;;;;;;;;;;;23.20;71.20;;;;;;5039755;28;19936;-77
2022/06/24 01:20:19;;;;;;;;;;;23.20;71.40;;;;;;5038170;28;19932;-75
2022/06/24 01:22:47;;;;;;;;;;;23.20;71.60;;;;;;5040115;28;19929;-75
2022/06/24 01:25:14;;;;;;;;;;;23.20;71.70;;;;;;5036827;28;19939;-75
2022/06/24 01:27:40;;;;;;;;;;;23.10;71.80;;;;;;5038621;28;19970;-75
2022/06/24 01:30:09;;;;;;;;;;;23.10;71.90;;;;;;5037913;28;19939;-75
2022/06/24 01:32:36;;;;;;;;;;;23.00;71.90;;;;;;5037317;28;19941;-75
2022/06/24 01:35:03;;;;;;;;;;;23.00;72.10;;;;;;5038130;28;19929;-75
2022/06/24 01:37:29;;;;;;;;;;;23.00;72.20;;;;;;5038023;28;19929;-76
2022/06/24 01:39:57;;;;;;;;;;;23.00;72.40;;;;;;5034186;28;19928;-75
2022/06/24 01:42:24;;;;;;;;;;;22.90;72.40;;;;;;5039593;28;19929;-78
2022/06/24 01:44:50;;;;;;;;;;;22.90;72.50;;;;;;5038061;28;19932;-77
2022/06/24 01:47:17;;;;;;;;;;;22.90;72.80;;;;;;5037975;28;19936;-75
2022/06/24 01:49:44;;;;;;;;;;;22.90;72.90;;;;;;5037669;28;19928;-75
2022/06/24 01:52:10;;;;;;;;;;;22.80;73.00;;;;;;5041112;28;19998;-75
2022/06/24 01:54:37;;;;;;;;;;;22.80;73.00;;;;;;5034071;28;21694;-74
2022/06/24 01:57:05;;;;;;;;;;;22.70;73.10;;;;;;5037709;28;19932;-77
2022/06/24 01:59:32;;;;;;;;;;;22.80;73.20;;;;;;5038699;28;19939;-75
2022/06/24 02:01:58;;;;;;;;;;;22.70;73.30;;;;;;5036220;28;19933;-78
2022/06/24 02:04:25;;;;;;;;;;;22.70;73.30;;;;;;5037172;28;19939;-75
2022/06/24 02:06:51;;;;;;;;;;;22.70;73.40;;;;;;5038163;28;19933;-76
2022/06/24 02:09:18;;;;;;;;;;;22.60;73.50;;;;;;5036865;28;19932;-76
2022/06/24 02:14:30;;;;;;;;;;;22.60;73.80;;;;;;5038730;28;19978;-76
2022/06/24 02:16:58;;;;;;;;;;;22.50;73.70;;;;;;5036781;28;21241;-76
2022/06/24 02:19:25;;;;;;;;;;;22.50;73.90;;;;;;5037891;28;20609;-76
2022/06/24 02:21:52;;;;;;;;;;;22.60;74.00;;;;;;5039371;28;21017;-77
2022/06/24 02:24:18;;;;;;;;;;;22.50;74.00;;;;;;5038121;28;20333;-77
2022/06/24 02:26:45;;;;;;;;;;;22.50;74.10;;;;;;5038260;28;19940;-76
2022/06/24 02:29:11;;;;;;;;;;;22.50;74.30;;;;;;5038097;28;19929;-79
2022/06/24 02:31:39;;;;;;;;;;;22.40;74.30;;;;;;5037754;28;20429;-76
2022/06/24 02:34:06;;;;;;;;;;;22.40;74.40;;;;;;5036186;28;19929;-76
2022/06/24 02:36:33;;;;;;;;;;;22.40;74.50;;;;;;5038203;28;19936;-78
2022/06/24 02:38:59;;;;;;;;;;;22.40;74.50;;;;;;5037086;28;19936;-76
2022/06/24 02:41:26;;;;;;;;;;;22.30;74.60;;;;;;5037419;28;19929;-76
2022/06/24 02:43:53;;;;;;;;;;;22.30;74.60;;;;;;5037520;28;20006;-79
2022/06/24 02:46:19;;;;;;;;;;;22.30;74.70;;;;;;5038318;28;19928;-76
2022/06/24 02:48:47;;;;;;;;;;;22.30;74.80;;;;;;5039189;28;19924;-77
2022/06/24 02:51:14;;;;;;;;;;;22.30;74.90;;;;;;5037999;28;21716;-76
2022/06/24 02:53:41;;;;;;;;;;;22.30;75.00;;;;;;5037759;28;20436;-76
2022/06/24 02:56:09;;;;;;;;;;;22.20;75.00;;;;;;5041181;28;19940;-77
2022/06/24 02:58:36;;;;;;;;;;;22.20;75.10;;;;;;5042598;28;20110;-76
2022/06/24 03:01:03;;;;;;;;;;;22.20;75.20;;;;;;5040949;28;19928;-76
2022/06/24 03:03:30;;;;;;;;;;;22.20;75.30;;;;;;5041039;28;19937;-75
2022/06/24 03:05:58;;;;;;;;;;;22.20;75.30;;;;;;5042867;28;19935;-76
2022/06/24 03:08:26;;;;;;;;;;;22.10;75.40;;;;;;5043908;28;19940;-76
2022/06/24 03:10:52;;;;;;;;;;;22.10;75.40;;;;;;5041504;28;19936;-78
2022/06/24 03:13:19;;;;;;;;;;;22.10;75.40;;;;;;5041313;28;19932;-77
2022/06/24 03:15:48;;;;;;;;;;;22.10;75.50;;;;;;5040809;28;20020;-78
2022/06/24 03:18:15;;;;;;;;;;;22.00;75.50;;;;;;5043395;28;19928;-75
2022/06/24 03:20:42;;;;;;;;;;;22.00;75.50;;;;;;5042362;28;19928;-76
2022/06/24 03:23:10;;;;;;;;;;;22.00;75.50;;;;;;5041615;28;19979;-76
2022/06/24 03:25:36;;;;;;;;;;;22.00;75.70;;;;;;5042498;28;19935;-76
2022/06/24 03:28:04;;;;;;;;;;;22.00;75.70;;;;;;5040817;28;20014;-76
2022/06/24 03:30:31;;;;;;;;;;;21.90;75.70;;;;;;5038287;28;19933;-76
2022/06/24 03:32:57;;;;;;;;;;;21.90;75.70;;;;;;5039106;28;19936;-75
2022/06/24 03:35:24;;;;;;;;;;;21.90;75.80;;;;;;5038392;28;19933;-77
2022/06/24 03:37:50;;;;;;;;;;;21.90;75.80;;;;;;5044059;28;19929;-75
2022/06/24 03:40:19;;;;;;;;;;;21.80;75.80;;;;;;5040199;28;19940;-76
2022/06/24 03:42:45;;;;;;;;;;;21.80;75.80;;;;;;5041780;28;19939;-76
2022/06/24 03:45:12;;;;;;;;;;;21.80;75.90;;;;;;5040849;28;19929;-76
2022/06/24 03:47:38;;;;;;;;;;;21.80;76.00;;;;;;5038769;28;19929;-77
2022/06/24 03:50:05;;;;;;;;;;;21.70;75.90;;;;;;5037987;28;20424;-78
2022/06/24 03:52:32;;;;;;;;;;;21.70;76.00;;;;;;5042389;28;19928;-75
2022/06/24 03:54:58;;;;;;;;;;;21.70;76.00;;;;;;5039370;28;19933;-76
2022/06/24 03:57:26;;;;;;;;;;;21.70;76.10;;;;;;5039347;28;19933;-77
2022/06/24 03:59:53;;;;;;;;;;;21.60;76.10;;;;;;5039681;28;20838;-77
2022/06/24 04:02:21;;;;;;;;;;;21.60;76.10;;;;;;5038163;28;19933;-75
2022/06/24 04:04:48;;;;;;;;;;;21.60;76.20;;;;;;5039632;28;20657;-76
2022/06/24 04:07:14;;;;;;;;;;;21.60;76.20;;;;;;5038269;28;19929;-76
2022/06/24 04:09:41;;;;;;;;;;;21.60;76.20;;;;;;5036270;28;20412;-75
2022/06/24 04:12:08;;;;;;;;;;;21.50;76.20;;;;;;5040553;28;20278;-77
2022/06/24 04:17:20;;;;;;;;;;;21.50;76.30;;;;;;5029696;28;19936;-79
2022/06/24 04:19:46;;;;;;;;;;;21.50;76.30;;;;;;5033352;28;19969;-76
2022/06/24 04:22:13;;;;;;;;;;;21.50;76.30;;;;;;5034856;28;19955;-75
2022/06/24 04:24:40;;;;;;;;;;;21.40;76.30;;;;;;5030362;28;20016;-76
2022/06/24 04:27:08;;;;;;;;;;;21.40;76.30;;;;;;5036252;28;19932;-76
2022/06/24 04:29:36;;;;;;;;;;;21.40;76.40;;;;;;5031015;28;19929;-76
2022/06/24 04:32:03;;;;;;;;;;;21.40;76.40;;;;;;5028508;28;20023;-76
2022/06/24 04:34:29;;;;;;;;;;;21.40;76.50;;;;;;5033388;28;19928;-77
2022/06/24 04:36:56;;;;;;;;;;;21.30;76.50;;;;;;5031055;28;19932;-76
2022/06/24 04:39:22;;;;;;;;;;;21.30;76.50;;;;;;5030225;28;19929;-78
2022/06/24 04:41:49;;;;;;;;;;;21.30;76.50;;;;;;5037656;28;20534;-75
2022/06/24 04:44:15;;;;;;;;;;;21.30;76.60;;;;;;5030547;28;19932;-76
2022/06/24 04:46:43;;;;;;;;;;;21.30;76.70;;;;;;5029064;28;19990;-76
2022/06/24 04:49:10;;;;;;;;;;;21.30;76.70;;;;;;5034747;28;19928;-76
2022/06/24 04:51:36;;;;;;;;;;;21.30;76.80;;;;;;5032332;28;20464;-76
2022/06/24 04:54:03;;;;;;;;;;;21.20;76.70;;;;;;5033380;28;19952;-76
2022/06/24 04:56:29;;;;;;;;;;;21.20;76.80;;;;;;5034109;28;19924;-76
2022/06/24 04:58:56;;;;;;;;;;;21.20;76.90;;;;;;5039960;28;19936;-76
2022/06/24 05:01:23;;;;;;;;;;;21.20;76.90;;;;;;5036470;28;19932;-79
2022/06/24 05:03:51;;;;;;;;;;;21.20;77.00;;;;;;5031838;28;19932;-76
2022/06/24 05:06:17;;;;;;;;;;;21.20;77.10;;;;;;5034655;28;21867;-76
2022/06/24 05:08:45;;;;;;;;;;;21.20;77.10;;;;;;5035784;28;20036;-75
2022/06/24 05:11:12;;;;;;;;;;;21.20;77.10;;;;;;5030622;28;20033;-76
2022/06/24 05:13:39;;;;;;;;;;;21.20;77.10;;;;;;5031616;28;20239;-76
2022/06/24 05:16:05;;;;;;;;;;;21.10;77.20;;;;;;5030183;28;20079;-77
2022/06/24 05:18:32;;;;;;;;;;;21.20;77.60;;;;;;5029334;28;20468;-76
2022/06/24 05:21:00;;;;;;;;;;;21.20;77.40;;;;;;5030177;28;20019;-75
2022/06/24 05:23:28;;;;;;;;;;;21.20;77.40;;;;;;5030951;28;20503;-75
2022/06/24 05:25:54;;;;;;;;;;;21.10;77.30;;;;;;5036778;28;19987;-76
2022/06/24 05:28:21;;;;;;;;;;;21.20;77.50;;;;;;5035106;28;19933;-76
2022/06/24 05:30:47;;;;;;;;;;;21.10;77.50;;;;;;5029118;28;19936;-75
2022/06/24 05:33:14;;;;;;;;;;;21.20;77.70;;;;;;5029384;28;19940;-75
2022/06/24 05:35:40;;;;;;;;;;;21.20;77.70;;;;;;5033177;28;20463;-75
2022/06/24 05:38:08;;;;;;;;;;;21.20;77.70;;;;;;5032939;28;19982;-76
2022/06/24 05:40:35;;;;;;;;;;;21.20;77.80;;;;;;5038085;28;19929;-75
2022/06/24 05:43:01;;;;;;;;;;;21.20;77.80;;;;;;5027484;28;19929;-69
2022/06/24 05:45:28;;;;;;;;;;;21.20;77.80;;;;;;5030150;28;20123;-69
2022/06/24 05:47:54;;;;;;;;;;;21.20;77.80;;;;;;5026392;28;19929;-70
2022/06/24 05:50:21;;;;;;;;;;;21.20;77.90;;;;;;5037610;28;19929;-71
2022/06/24 05:55:33;;;;;;;;;;;21.20;78.10;;;;;;5037741;28;19967;-70
2022/06/24 05:58:00;;;;;;;;;;;21.20;78.10;;;;;;5037857;28;19933;-70
2022/06/24 06:00:26;;;;;;;;;;;21.30;78.30;;;;;;5036513;28;19929;-68
2022/06/24 06:02:53;;;;;;;;;;;21.30;78.40;;;;;;5037502;28;19928;-71
2022/06/24 06:05:20;;;;;;;;;;;21.30;78.40;;;;;;5038197;28;19929;-70
2022/06/24 06:07:46;;;;;;;;;;;21.20;78.40;;;;;;5034459;28;20012;-74
2022/06/24 06:10:13;;;;;;;;;;;21.30;78.50;;;;;;5035289;28;20408;-72
2022/06/24 06:12:41;;;;;;;;;;;21.30;78.50;;;;;;5038706;28;19933;-74
2022/06/24 06:15:08;;;;;;;;;;;21.30;78.40;;;;;;5037090;28;20395;-73
2022/06/24 06:17:35;;;;;;;;;;;21.30;78.40;;;;;;5037650;28;19929;-75
2022/06/24 06:20:02;;;;;;;;;;;21.30;78.40;;;;;;5036424;28;19933;-72
2022/06/24 06:22:28;;;;;;;;;;;21.30;78.40;;;;;;5037663;28;20285;-77
2022/06/24 06:24:55;;;;;;;;;;;21.30;78.40;;;;;;5038185;28;19936;-74
2022/06/24 06:27:22;;;;;;;;;;;21.40;78.50;;;;;;5040555;28;19929;-76
2022/06/24 06:29:50;;;;;;;;;;;21.40;78.60;;;;;;5040179;28;19928;-74
2022/06/24 06:32:16;;;;;;;;;;;21.40;78.60;;;;;;5041171;28;19933;-73
2022/06/24 06:34:43;;;;;;;;;;;21.40;78.40;;;;;;5043633;28;19940;-74
2022/06/24 06:37:11;;;;;;;;;;;21.40;78.50;;;;;;5043867;28;19929;-73
2022/06/24 06:39:37;;;;;;;;;;;21.40;78.60;;;;;;5039953;28;20574;-73
2022/06/24 06:42:05;;;;;;;;;;;21.50;78.60;;;;;;5042792;28;19933;-74
2022/06/24 06:44:31;;;;;;;;;;;21.50;78.70;;;;;;5043235;28;19936;-73
2022/06/24 06:46:59;;;;;;;;;;;21.50;78.50;;;;;;5041966;28;19936;-72
2022/06/24 06:49:26;;;;;;;;;;;21.50;78.50;;;;;;5042949;28;19933;-74
2022/06/24 06:51:52;;;;;;;;;;;21.50;78.40;;;;;;5043183;28;20868;-74
2022/06/24 06:54:19;;;;;;;;;;;21.50;78.50;;;;;;5038740;28;19929;-76
2022/06/24 06:56:45;;;;;;;;;;;21.50;78.30;;;;;;5044137;28;19932;-75
2022/06/24 06:59:12;;;;;;;;;;;21.60;78.20;;;;;;5046411;28;19935;-74
2022/06/24 07:01:38;;;;;;;;;;;21.60;78.20;;;;;;5044470;28;19929;-75
2022/06/24 07:04:06;;;;;;;;;;;21.60;78.10;;;;;;5044352;28;19933;-75
2022/06/24 07:06:33;;;;;;;;;;;21.60;78.00;;;;;;5044184;28;19929;-75
2022/06/24 07:09:00;;;;;;;;;;;21.60;78.00;;;;;;5043778;28;19932;-73
2022/06/24 07:11:27;;;;;;;;;;;21.70;78.10;;;;;;5044211;28;19936;-73
2022/06/24 07:13:54;;;;;;;;;;;21.60;78.00;;;;;;5040220;28;19928;-76
2022/06/24 07:16:21;;;;;;;;;;;21.70;78.10;;;;;;5043732;28;20019;-76
2022/06/24 07:18:48;;;;;;;;;;;21.70;78.00;;;;;;5042303;28;19929;-73
2022/06/24 07:21:15;;;;;;;;;;;21.70;78.00;;;;;;5039656;28;20651;-73
2022/06/24 07:23:42;;;;;;;;;;;21.70;77.90;;;;;;5034485;28;20404;-72
2022/06/24 07:26:09;;;;;;;;;;;21.80;77.90;;;;;;5038195;28;19943;-74
2022/06/24 07:28:35;;;;;;;;;;;21.80;77.80;;;;;;5036097;28;20459;-75
2022/06/24 07:31:02;;;;;;;;;;;21.80;77.70;;;;;;5034158;28;19932;-75
2022/06/24 07:33:28;;;;;;;;;;;21.90;77.50;;;;;;5041288;28;19928;-75
2022/06/24 07:35:55;;;;;;;;;;;21.90;77.50;;;;;;5044751;28;20602;-77
2022/06/24 07:38:23;;;;;;;;;;;21.90;77.30;;;;;;5042809;28;19933;-76
2022/06/24 07:40:51;;;;;;;;;;;22.00;77.20;;;;;;5042321;28;19929;-75
2022/06/24 07:43:18;;;;;;;;;;;22.00;77.10;;;;;;5045819;28;19935;-75
2022/06/24 07:45:44;;;;;;;;;;;22.00;77.00;;;;;;5046611;28;19929;-74
2022/06/24 07:48:11;;;;;;;;;;;22.00;76.80;;;;;;5042630;28;19932;-77
2022/06/24 07:50:37;;;;;;;;;;;22.00;76.70;;;;;;5044712;28;19928;-77
2022/06/24 07:53:04;;;;;;;;;;;22.00;76.50;;;;;;5042242;28;19982;-76
2022/06/24 07:58:16;;;;;;;;;;;22.10;76.30;;;;;;5042423;28;20303;-74
2022/06/24 08:00:43;;;;;;;;;;;22.10;76.20;;;;;;5037705;28;19928;-74
2022/06/24 08:03:11;;;;;;;;;;;22.10;76.10;;;;;;5034668;28;20467;-74
2022/06/24 08:05:38;;;;;;;;;;;22.10;75.90;;;;;;5039984;28;19929;-75
2022/06/24 08:08:05;;;;;;;;;;;22.10;75.80;;;;;;5040149;28;19932;-73
2022/06/24 08:10:32;;;;;;;;;;;22.20;75.60;;;;;;5042169;28;19939;-74
2022/06/24 08:12:59;;;;;;;;;;;22.20;75.50;;;;;;5044309;28;19929;-76
2022/06/24 08:15:26;;;;;;;;;;;22.20;75.40;;;;;;5041248;28;20694;-74
2022/06/24 08:17:56;;;;;;;;;;;22.20;75.20;;;;;;5041714;28;19929;-76
2022/06/24 08:20:23;;;;;;;;;;;22.20;75.20;;;;;;5036136;28;21050;-77
2022/06/24 08:22:49;;;;;;;;;;;22.20;75.10;;;;;;5036777;28;19936;-73
2022/06/24 08:25:16;;;;;;;;;;;22.30;75.00;;;;;;5035419;28;20687;-73
2022/06/24 08:27:44;;;;;;;;;;;22.30;74.90;;;;;;5036430;28;19938;-73
2022/06/24 08:30:11;;;;;;;;;;;22.30;74.80;;;;;;5037050;28;19929;-75
2022/06/24 08:32:37;;;;;;;;;;;22.30;74.80;;;;;;5040624;28;19936;-76
2022/06/24 08:35:04;;;;;;;;;;;22.30;74.70;;;;;;5040388;28;19933;-76
2022/06/24 08:37:31;;;;;;;;;;;22.30;74.70;;;;;;5034740;28;19929;-73
2022/06/24 08:39:59;;;;;;;;;;;22.30;74.60;;;;;;5036878;28;19932;-74
2022/06/24 08:42:27;;;;;;;;;;;22.40;74.40;;;;;;5036595;28;19971;-74
2022/06/24 08:44:58;;;;;;;;;;;22.40;74.20;;;;;;5038680;28;19933;-74
2022/06/24 08:47:25;;;;;;;;;;;22.40;74.30;;;;;;5040731;28;20638;-73
2022/06/24 08:49:52;;;;;;;;;;;22.40;74.00;;;;;;5038876;28;19932;-75
2022/06/24 08:52:20;;;;;;;;;;;22.50;73.90;;;;;;5043461;28;19929;-74
2022/06/24 08:54:47;;;;;;;;;;;22.50;73.70;;;;;;5038529;28;19932;-75
2022/06/24 08:57:13;;;;;;;;;;;22.50;73.80;;;;;;5040648;28;19928;-74
2022/06/24 08:59:42;;;;;;;;;;;22.50;73.60;;;;;;5040752;28;19958;-74
2022/06/24 09:02:13;;;;;;;;;;;22.50;73.30;;;;;;5037979;28;19962;-76
2022/06/24 09:04:42;;;;;;;;;;;22.60;73.20;;;;;;5037203;28;20436;-75
2022/06/24 09:07:10;;;;;;;;;;;22.60;73.10;;;;;;5040238;28;20388;-75
2022/06/24 09:09:36;;;;;;;;;;;22.60;72.90;;;;;;5038752;28;19933;-75
2022/06/24 09:12:03;;;;;;;;;;;22.70;72.70;;;;;;5038987;28;19936;-74
2022/06/24 09:14:43;;;;;;;;;;;22.70;72.50;;;;;;5038431;28;19935;-75
2022/06/24 09:17:12;;;;;;;;;;;22.80;72.30;;;;;;5038302;28;19976;-75
2022/06/24 09:19:39;;;;;;;;;;;22.80;71.90;;;;;;5036906;28;20019;-75
2022/06/24 09:22:06;;;;;;;;;;;22.80;71.70;;;;;;5037453;28;19929;-74
2022/06/24 09:24:43;;;;;;;;;;;22.80;71.30;;;;;;5037253;28;20351;-76
2022/06/24 09:27:09;;;;;;;;;;;22.90;70.80;;;;;;5037646;28;20454;-77
2022/06/24 09:29:36;;;;;;;;;;;22.90;70.50;;;;;;5038074;28;20613;-75
2022/06/24 09:32:04;;;;;;;;;;;22.90;70.40;;;;;;5038110;28;19929;-74
2022/06/24 09:34:32;;;;;;;;;;;22.90;70.10;;;;;;5037040;28;21482;-75
2022/06/24 09:36:58;;;;;;;;;;;23.00;70.00;;;;;;5040584;28;19929;-74
2022/06/24 09:39:25;;;;;;;;;;;23.00;69.80;;;;;;5037316;28;19940;-74
2022/06/24 09:41:54;;;;;;;;;;;23.00;69.70;;;;;;5040506;28;20484;-75
2022/06/24 09:44:21;;;;;;;;;;;23.10;69.70;;;;;;5038030;28;19968;-74
2022/06/24 09:46:48;;;;;;;;;;;23.10;69.50;;;;;;5040363;28;19935;-75
2022/06/24 09:49:16;;;;;;;;;;;23.20;69.40;;;;;;5039962;28;20035;-72
2022/06/24 09:51:45;;;;;;;;;;;23.20;69.20;;;;;;5041999;28;20035;-73
2022/06/24 09:54:12;;;;;;;;;;;23.20;68.70;;;;;;5039956;28;19936;-73
2022/06/24 09:56:39;;;;;;;;;;;23.20;68.30;;;;;;5042695;28;19936;-73
2022/06/24 10:01:50;;;;;;;;;;;23.30;67.80;;;;;;5039048;28;20057;-73
2022/06/24 10:04:18;;;;;;;;;;;23.40;67.80;;;;;;5040250;28;20348;-73
2022/06/24 10:06:46;;;;;;;;;;;23.40;67.20;;;;;;5044335;28;19952;-72
2022/06/24 10:09:13;;;;;;;;;;;23.50;67.00;;;;;;5043877;28;19928;-73
2022/06/24 10:11:41;;;;;;;;;;;23.50;66.60;;;;;;5044498;28;19929;-74
2022/06/24 10:14:08;;;;;;;;;;;23.60;66.30;;;;;;5043506;28;20415;-73
2022/06/24 10:16:36;;;;;;;;;;;23.70;66.20;;;;;;5044931;28;19928;-73
2022/06/24 10:19:03;;;;;;;;;;;23.70;65.70;;;;;;5046552;28;19929;-73
2022/06/24 10:21:29;;;;;;;;;;;23.80;65.50;;;;;;5043091;28;19928;-72
2022/06/24 10:23:57;;;;;;;;;;;23.90;65.40;;;;;;5042133;28;20925;-74
2022/06/24 10:26:25;;;;;;;;;;;23.90;64.70;;;;;;5043891;28;19933;-73
2022/06/24 10:29:10;;;;;;;;;;;24.00;64.60;;;;;;5042384;28;19936;-75
2022/06/24 10:31:51;;;;;;;;;;;24.10;64.70;;;;;;5041136;28;19935;-73
2022/06/24 10:34:28;;;;;;;;;;;24.20;64.50;;;;;;5045412;28;20003;-73
2022/06/24 10:36:55;;;;;;;;;;;24.20;64.60;;;;;;5042992;28;19983;-73
2022/06/24 10:39:23;;;;;;;;;;;24.20;64.40;;;;;;5042631;28;19928;-74
2022/06/24 10:41:58;;;;;;;;;;;24.30;64.30;;;;;;5042827;28;19928;-75
2022/06/24 10:44:27;;;;;;;;;;;24.30;63.90;;;;;;5040108;28;19929;-73
2022/06/24 10:47:08;;;;;;;;;;;24.40;63.70;;;;;;5040860;28;20051;-73
2022/06/24 10:49:49;;;;;;;;;;;24.40;63.70;;;;;;5044609;28;20283;-73
2022/06/24 10:52:29;;;;;;;;;;;24.50;63.70;;;;;;5042668;28;19932;-74
2022/06/24 10:55:10;;;;;;;;;;;24.50;64.00;;;;;;5042130;28;21911;-74
2022/06/24 10:57:38;;;;;;;;;;;24.60;63.20;;;;;;5049088;28;19936;-78
2022/06/24 11:00:10;;;;;;;;;;;24.60;63.20;;;;;;5046222;28;19932;-69
2022/06/24 11:02:36;;;;;;;;;;;24.70;62.30;;;;;;5039816;28;20008;-67
2022/06/24 11:05:04;;;;;;;;;;;24.70;61.90;;;;;;5040984;28;19940;-69
2022/06/24 11:07:31;;;;;;;;;;;24.80;61.40;;;;;;5046447;28;19929;-67
2022/06/24 11:09:57;;;;;;;;;;;24.90;60.70;;;;;;5043022;28;20470;-67
2022/06/24 11:12:28;;;;;;;;;;;24.90;60.90;;;;;;5044325;28;20389;-69
2022/06/24 11:14:56;;;;;;;;;;;24.90;60.60;;;;;;5044294;28;19933;-70
2022/06/24 11:17:24;;;;;;;;;;;25.00;60.40;;;;;;5044579;28;19929;-70
2022/06/24 11:19:51;;;;;;;;;;;25.00;60.70;;;;;;5043378;28;20372;-71
2022/06/24 11:22:18;;;;;;;;;;;25.10;60.90;;;;;;5042609;28;19952;-69
2022/06/24 11:24:46;;;;;;;;;;;25.10;61.40;;;;;;5044538;28;19928;-69
2022/06/24 11:27:12;;;;;;;;;;;25.20;61.20;;;;;;5044980;28;19933;-66
2022/06/24 11:29:57;;;;;;;;;;;25.30;60.50;;;;;;5045165;28;19932;-69
2022/06/24 11:32:24;;;;;;;;;;;25.30;59.80;;;;;;5039345;28;19928;-71
2022/06/24 11:34:51;;;;;;;;;;;25.30;59.80;;;;;;5043461;28;19958;-67
2022/06/24 11:37:22;;;;;;;;;;;25.40;59.50;;;;;;5045228;28;19928;-66
2022/06/24 11:39:51;;;;;;;;;;;25.40;59.30;;;;;;5041097;28;19933;-68
2022/06/24 11:42:18;;;;;;;;;;;25.50;59.30;;;;;;5044216;28;19933;-69
2022/06/24 11:44:44;;;;;;;;;;;25.50;59.20;;;;;;5042912;28;19929;-68
2022/06/24 11:47:12;;;;;;;;;;;25.60;59.40;;;;;;5042855;28;19935;-67
2022/06/24 11:49:42;;;;;;;;;;;25.60;59.30;;;;;;5041798;28;19936;-69
2022/06/24 11:52:08;;;;;;;;;;;25.60;59.50;;;;;;5045064;28;19963;-68
2022/06/24 11:54:35;;;;;;;;;;;25.70;59.20;;;;;;5043996;28;19975;-70
2022/06/24 11:57:01;;;;;;;;;;;25.70;58.80;;;;;;5042885;28;19924;-68
2022/06/24 11:59:28;;;;;;;;;;;25.80;59.20;;;;;;5043416;28;19933;-67
2022/06/24 12:01:55;;;;;;;;;;;25.80;59.40;;;;;;5039776;28;20183;-69
2022/06/24 12:04:24;;;;;;;;;;;25.90;59.30;;;;;;5042521;28;19940;-70
2022/06/24 12:06:51;;;;;;;;;;;25.90;59.10;;;;;;5043773;28;20018;-70
2022/06/24 12:09:18;;;;;;;;;;;25.90;59.10;;;;;;5041105;28;20015;-68
2022/06/24 12:11:46;;;;;;;;;;;25.90;58.90;;;;;;5043441;28;19936;-70
2022/06/24 12:14:14;;;;;;;;;;;26.00;58.70;;;;;;5042403;28;20032;-67
2022/06/24 12:17:00;;;;;;;;;;;26.00;58.50;;;;;;5041403;28;19935;-69
2022/06/24 12:19:28;;;;;;;;;;;26.10;58.50;;;;;;5042980;28;19929;-67
2022/06/24 12:22:05;;;;;;;;;;;26.10;58.20;;;;;;5042189;28;19932;-68
2022/06/24 12:24:32;;;;;;;;;;;26.10;57.90;;;;;;5037161;28;19933;-67
2022/06/24 12:27:00;;;;;;;;;;;26.10;58.00;;;;;;5040697;28;19963;-71
2022/06/24 12:29:30;;;;;;;;;;;26.10;58.30;;;;;;5043057;28;19932;-67
2022/06/24 12:31:57;;;;;;;;;;;26.10;58.10;;;;;;5041539;28;20427;-67
2022/06/24 12:34:27;;;;;;;;;;;26.10;57.70;;;;;;5042451;28;19939;-68
2022/06/24 12:36:58;;;;;;;;;;;26.10;58.00;;;;;;5043144;28;19933;-69
2022/06/24 12:39:28;;;;;;;;;;;26.20;57.80;;;;;;5039937;28;19929;-70
2022/06/24 12:41:55;;;;;;;;;;;26.20;57.90;;;;;;5040169;28;20317;-67
2022/06/24 12:44:22;;;;;;;;;;;26.30;57.80;;;;;;5040834;28;20828;-69
2022/06/24 12:52:31;;;;;;;;;;;26.40;57.40;;;;;;5039737;28;19977;-67
2022/06/24 12:54:58;;;;;;;;;;;26.50;57.90;;;;;;5040350;28;19986;-68
2022/06/24 12:57:24;;;;;;;;;;;26.50;57.60;;;;;;5040959;28;20520;-68
2022/06/24 12:59:51;;;;;;;;;;;26.60;57.60;;;;;;5041466;28;19929;-68
2022/06/24 13:02:17;;;;;;;;;;;26.70;57.50;;;;;;5037813;28;19973;-67
2022/06/24 13:04:45;;;;;;;;;;;26.80;57.70;;;;;;5043118;28;19932;-71
2022/06/24 13:07:12;;;;;;;;;;;26.80;57.40;;;;;;5039131;28;19929;-68
2022/06/24 13:09:39;;;;;;;;;;;26.80;57.40;;;;;;5040956;28;19947;-70
2022/06/24 13:12:05;;;;;;;;;;;26.90;57.30;;;;;;5039847;28;19936;-69
2022/06/24 13:14:32;;;;;;;;;;;26.90;57.20;;;;;;5040182;28;19943;-69
2022/06/24 13:16:59;;;;;;;;;;;27.00;56.70;;;;;;5038845;28;19940;-69
2022/06/24 13:19:25;;;;;;;;;;;27.00;57.00;;;;;;5041910;28;19932;-68
2022/06/24 13:21:54;;;;;;;;;;;27.00;57.00;;;;;;5041785;28;19936;-68
2022/06/24 13:24:21;;;;;;;;;;;27.00;56.30;;;;;;5040629;28;19935;-71
2022/06/24 13:26:48;;;;;;;;;;;27.10;56.30;;;;;;5040694;28;19929;-68
2022/06/24 13:29:14;;;;;;;;;;;27.10;56.50;;;;;;5041669;28;19929;-69
2022/06/24 13:31:41;;;;;;;;;;;27.10;57.00;;;;;;5040278;28;19936;-68
2022/06/24 13:34:08;;;;;;;;;;;27.10;56.30;;;;;;5046199;28;20177;-69
2022/06/24 13:36:35;;;;;;;;;;;27.10;55.60;;;;;;5042915;28;19936;-69
2022/06/24 13:39:02;;;;;;;;;;;27.10;55.50;;;;;;5038951;28;19929;-68
2022/06/24 13:41:31;;;;;;;;;;;27.10;55.30;;;;;;5041435;28;19929;-71
2022/06/24 13:43:57;;;;;;;;;;;27.20;55.50;;;;;;5038481;28;21897;-67
2022/06/24 13:46:24;;;;;;;;;;;27.20;55.90;;;;;;5035266;28;20347;-68
2022/06/24 13:48:51;;;;;;;;;;;27.20;56.20;;;;;;5042703;28;19936;-68
2022/06/24 13:51:17;;;;;;;;;;;27.20;56.00;;;;;;5039626;28;19928;-68
2022/06/24 13:53:44;;;;;;;;;;;27.20;55.90;;;;;;5040183;28;19936;-76
2022/06/24 13:56:12;;;;;;;;;;;27.30;55.50;;;;;;5039293;28;21744;-77
2022/06/24 13:58:39;;;;;;;;;;;27.30;55.30;;;;;;5036496;28;19940;-78
2022/06/24 14:01:05;;;;;;;;;;;27.30;54.90;;;;;;5039121;28;19940;-76
2022/06/24 14:03:32;;;;;;;;;;;27.40;55.00;;;;;;5039648;28;19933;-78
2022/06/24 14:05:59;;;;;;;;;;;27.40;54.80;;;;;;5039438;28;19929;-80
2022/06/24 14:08:26;;;;;;;;;;;27.40;54.60;;;;;;5036934;28;19929;-77
2022/06/24 14:10:52;;;;;;;;;;;27.50;54.90;;;;;;5037904;28;19968;-78
2022/06/24 14:13:20;;;;;;;;;;;27.50;55.00;;;;;;5037646;28;19928;-78
2022/06/24 14:15:47;;;;;;;;;;;27.50;54.80;;;;;;5037205;28;19940;-77
2022/06/24 14:18:14;;;;;;;;;;;27.50;54.70;;;;;;5033583;28;19929;-77
2022/06/24 14:20:40;;;;;;;;;;;27.60;54.60;;;;;;5043872;28;19955;-78
2022/06/24 14:25:51;;;;;;;;;;;27.60;54.00;;;;;;5038452;28;20732;-78
2022/06/24 14:28:19;;;;;;;;;;;27.60;53.70;;;;;;5037500;28;19937;-75
2022/06/24 14:30:46;;;;;;;;;;;27.70;54.00;;;;;;5037897;28;19937;-76
2022/06/24 14:33:13;;;;;;;;;;;27.60;53.80;;;;;;5039024;28;19928;-75
2022/06/24 14:35:39;;;;;;;;;;;27.70;54.00;;;;;;5037660;28;20424;-75
2022/06/24 14:40:50;;;;;;;;;;;27.70;53.90;;;;;;5040119;28;19936;-75
2022/06/24 14:43:17;;;;;;;;;;;27.70;54.10;;;;;;5041480;28;20567;-75